Search for airport 
image banner adimage banner adimage banner ad
image banner ad

L11 - Pebbly Beach

Located in Avalon, United States

ICAO - L11, IATA - AVX

Data provided by Airmate  

General information

Coordinates: N33°20'18" W118°18'43"
Elevation is 6 feet MSL.
Magnetic variation is 12° East
View others Airports in California

Operational data

Special qualification required
Current time UTC:
Current local time:
Weather at : KAVX - Catalina ( 12 km )
METAR: KAVX 221307Z AUTO 28006KT M1/4SM FG VV001 13/12 A2995 RMK AO2 T01280122 $
View NOTAMs / SUP AIP / TFR affecting this airport [VIEW]
Communications frequencies: [VIEW]

Runways:

RWY identifierQFULength (ft)Width (ft)SurfaceLDA (ft)
ALL150004000WATER
WAY150004000WATER

Airport contact information

Address: Avalon United States

Satellite view of L11